Hartford, Connecticut
Current Conditions -  °F | °C
As of 5:53 PM on Friday 28 Nov 2014 (Local Time) from KHFD Reporting Station
Clear Clear  
Wind Chill: 25°   Ceiling: Unl
Heat Index: 30°   Visibility: 10mi
Dew Point: 17°   Wind: 5mph
Humidity: 59%   Direction: NA
Pressure: 30.21"   Gusts: NA
Location:  41.76°N, 72.67°W
Report Text: KHFD 282253Z VRB04KT 10SM CLR M01/M08 A3021 RMK AO2 SLP228 T10111083
Loading
Personal Weather Stations






























Interactive Weather Map New forecast layout! Learn more

10-Day Weather Forecast

Advertisements
Track Severe Weather on mobile